createdAt,value
2019-05-13T00:00:20.580Z,0.80
2019-05-13T00:01:20.571Z,0.90
2019-05-13T00:02:20.564Z,0.90
2019-05-13T00:03:20.557Z,0.70
2019-05-13T00:04:20.554Z,0.60
2019-05-13T00:05:20.545Z,0.70
2019-05-13T00:06:20.538Z,0.90
2019-05-13T00:07:20.533Z,0.60
2019-05-13T00:08:21.849Z,0.90
2019-05-13T00:09:20.518Z,0.80
2019-05-13T00:10:20.515Z,0.60
2019-05-13T00:11:20.507Z,0.80
2019-05-13T00:12:20.507Z,0.70
2019-05-13T00:13:20.495Z,0.80
2019-05-13T00:14:20.489Z,1.00
2019-05-13T00:15:20.481Z,0.80
2019-05-13T00:16:20.475Z,0.80
2019-05-13T00:17:20.466Z,0.80
2019-05-13T00:18:20.462Z,0.70
2019-05-13T00:19:20.462Z,0.70
2019-05-13T00:20:20.448Z,0.90
2019-05-13T00:21:20.440Z,0.70
2019-05-13T00:22:20.434Z,0.90
2019-05-13T00:23:20.429Z,0.70
2019-05-13T00:24:20.422Z,0.80
2019-05-13T00:25:20.415Z,1.10
2019-05-13T00:26:20.409Z,0.70
2019-05-13T00:27:20.405Z,0.80
2019-05-13T00:28:20.396Z,0.70
2019-05-13T00:29:20.388Z,0.80
2019-05-13T00:30:20.384Z,1.10
2019-05-13T00:31:20.379Z,0.70
2019-05-13T00:32:20.370Z,1.30
2019-05-13T00:33:20.363Z,0.70
2019-05-13T00:34:20.357Z,1.10
2019-05-13T00:35:20.352Z,0.80
2019-05-13T00:36:20.347Z,1.10
2019-05-13T00:37:20.342Z,0.90
2019-05-13T00:38:20.331Z,1.00
2019-05-13T00:39:20.325Z,0.80
2019-05-13T00:40:20.318Z,0.80
2019-05-13T00:41:20.311Z,1.10
2019-05-13T00:42:20.306Z,0.70
2019-05-13T00:43:20.299Z,0.70
2019-05-13T00:44:20.294Z,0.90
2019-05-13T00:45:20.283Z,1.10
2019-05-13T00:46:20.277Z,0.80
2019-05-13T00:47:20.280Z,1.40
2019-05-13T00:48:20.265Z,1.10
2019-05-13T00:49:20.258Z,0.60
2019-05-13T00:50:20.252Z,0.70
2019-05-13T00:51:20.245Z,0.90
2019-05-13T00:52:20.241Z,1.00
2019-05-13T00:53:20.232Z,1.30
2019-05-13T00:54:20.225Z,0.90
2019-05-13T00:55:20.219Z,0.80
2019-05-13T00:56:20.213Z,0.90
2019-05-13T00:57:20.204Z,1.00
2019-05-13T00:58:20.202Z,1.00
2019-05-13T00:59:20.196Z,0.80
2019-05-13T01:00:20.188Z,0.80
2019-05-13T01:01:20.180Z,0.70
2019-05-13T01:02:20.176Z,0.80
2019-05-13T01:03:20.169Z,1.00
2019-05-13T01:04:20.162Z,0.70
2019-05-13T01:05:20.159Z,0.70
2019-05-13T01:06:20.149Z,0.90
2019-05-13T01:07:25.977Z,0.90
2019-05-13T01:08:20.136Z,0.80
2019-05-13T01:09:20.128Z,0.90
2019-05-13T01:10:20.120Z,0.90
2019-05-13T01:11:20.114Z,0.80
2019-05-13T01:12:20.109Z,1.00
2019-05-13T01:13:20.100Z,1.20
2019-05-13T01:14:20.094Z,1.10
2019-05-13T01:15:20.087Z,0.80
2019-05-13T01:16:20.081Z,0.90
2019-05-13T01:17:20.073Z,0.90
2019-05-13T01:18:20.067Z,0.80
2019-05-13T01:19:20.061Z,0.70
2019-05-13T01:20:20.057Z,0.80
2019-05-13T01:21:20.046Z,0.90
2019-05-13T01:22:20.040Z,0.80
2019-05-13T01:23:20.033Z,0.80
2019-05-13T01:24:20.026Z,0.70
2019-05-13T01:25:20.018Z,0.80
2019-05-13T01:26:20.011Z,0.90
2019-05-13T01:27:20.008Z,0.90
2019-05-13T01:28:19.999Z,1.00
2019-05-13T01:29:19.990Z,0.60
2019-05-13T01:30:19.985Z,0.80
2019-05-13T01:31:19.978Z,0.80
2019-05-13T01:32:19.971Z,0.70
2019-05-13T01:33:19.969Z,1.20
2019-05-13T01:34:19.957Z,1.00
2019-05-13T01:35:19.954Z,1.00
2019-05-13T01:36:19.943Z,0.90
2019-05-13T01:37:19.934Z,1.20
2019-05-13T01:38:19.928Z,0.90
2019-05-13T01:39:19.922Z,0.90
2019-05-13T01:40:19.916Z,0.90
2019-05-13T01:41:19.909Z,1.20
2019-05-13T01:42:19.900Z,0.80
2019-05-13T01:43:19.894Z,0.90
2019-05-13T01:44:19.889Z,0.90
2019-05-13T01:45:19.880Z,0.80
2019-05-13T01:46:19.876Z,1.00
2019-05-13T01:47:19.865Z,0.80
2019-05-13T01:48:19.859Z,1.10
2019-05-13T01:49:19.852Z,1.30
2019-05-13T01:50:19.844Z,0.70
2019-05-13T01:51:19.838Z,1.00
2019-05-13T01:52:19.832Z,0.80
2019-05-13T01:53:19.824Z,0.70
2019-05-13T01:54:19.816Z,1.00
2019-05-13T01:55:19.810Z,0.90
2019-05-13T01:56:19.802Z,1.20
2019-05-13T01:57:19.795Z,1.00
2019-05-13T01:58:19.789Z,0.70
2019-05-13T01:59:19.781Z,0.90
2019-05-13T02:00:19.775Z,1.10
2019-05-13T02:01:19.766Z,0.80
2019-05-13T02:02:19.760Z,0.90
2019-05-13T02:03:19.759Z,0.70
2019-05-13T02:04:19.745Z,1.10
2019-05-13T02:05:19.738Z,0.70
2019-05-13T02:06:19.730Z,0.60
2019-05-13T02:07:19.723Z,1.00
2019-05-13T02:08:19.720Z,1.20
2019-05-13T02:09:19.710Z,1.10
2019-05-13T02:10:19.703Z,0.70
2019-05-13T02:11:19.694Z,1.10
2019-05-13T02:12:19.689Z,0.90
2019-05-13T02:13:19.683Z,1.20
2019-05-13T02:14:19.674Z,0.70
2019-05-13T02:15:19.668Z,1.00
2019-05-13T02:16:19.661Z,0.90
2019-05-13T02:17:19.650Z,0.80
2019-05-13T02:18:19.645Z,0.90
2019-05-13T02:19:19.637Z,0.70
2019-05-13T02:20:19.630Z,0.70
2019-05-13T02:21:19.624Z,1.30
2019-05-13T02:22:19.616Z,0.70
2019-05-13T02:23:19.609Z,1.00
2019-05-13T02:24:19.602Z,0.90
2019-05-13T02:25:19.593Z,0.90
2019-05-13T02:26:19.586Z,1.20
2019-05-13T02:27:19.581Z,0.70
2019-05-13T02:28:19.574Z,1.10
2019-05-13T02:29:19.567Z,0.80
2019-05-13T02:30:19.558Z,0.80
2019-05-13T02:31:38.921Z,1.20
2019-05-13T02:32:19.542Z,0.90
2019-05-13T02:33:22.895Z,0.90
2019-05-13T02:34:22.972Z,1.10
2019-05-13T02:35:22.941Z,1.00
2019-05-13T02:36:22.568Z,0.90
2019-05-13T02:37:22.892Z,1.00
2019-05-13T02:38:24.474Z,1.10
2019-05-13T02:39:22.124Z,1.00
2019-05-13T02:40:22.418Z,0.80
2019-05-13T02:41:22.562Z,0.80
2019-05-13T02:42:22.575Z,0.80
2019-05-13T02:43:22.724Z,0.90
2019-05-13T02:44:22.341Z,1.30
2019-05-13T02:45:22.534Z,1.00
2019-05-13T02:46:22.397Z,1.30
2019-05-13T02:47:22.398Z,1.10
2019-05-13T02:48:22.872Z,0.80
2019-05-13T02:49:22.876Z,1.00
2019-05-13T02:50:22.361Z,1.00
2019-05-13T02:51:22.738Z,0.80
2019-05-13T02:52:22.257Z,0.90
2019-05-13T02:53:19.391Z,0.80
2019-05-13T02:54:22.703Z,1.00
2019-05-13T02:55:22.171Z,1.00
2019-05-13T02:56:22.397Z,1.40
2019-05-13T02:57:23.047Z,0.90
2019-05-13T02:58:23.620Z,0.90
2019-05-13T02:59:22.428Z,0.90
2019-05-13T03:00:19.339Z,1.00
2019-05-13T03:01:22.078Z,1.00
2019-05-13T03:02:22.185Z,0.90
2019-05-13T03:03:22.686Z,0.90
2019-05-13T03:04:19.304Z,1.00
2019-05-13T03:05:21.777Z,0.80
2019-05-13T03:06:22.108Z,1.10
2019-05-13T03:07:23.009Z,1.00
2019-05-13T03:08:36.708Z,0.90
2019-05-13T03:09:22.701Z,1.10
2019-05-13T03:10:22.181Z,0.90
2019-05-13T03:11:22.490Z,1.00
2019-05-13T03:12:19.243Z,1.00
2019-05-13T03:13:19.244Z,0.70
2019-05-13T03:14:19.226Z,1.00
2019-05-13T03:15:19.226Z,1.10
2019-05-13T03:16:19.215Z,0.90
2019-05-13T03:17:22.039Z,1.20
2019-05-13T03:18:22.295Z,1.00
2019-05-13T03:19:22.184Z,1.10
2019-05-13T03:20:22.400Z,0.80
2019-05-13T03:21:22.840Z,1.20
2019-05-13T03:22:22.127Z,0.80
2019-05-13T03:23:22.459Z,0.90
2019-05-13T03:24:22.378Z,0.80
2019-05-13T03:25:22.221Z,0.90
2019-05-13T03:26:19.137Z,1.40
2019-05-13T03:27:20.505Z,1.00
2019-05-13T03:28:22.045Z,0.90
2019-05-13T03:29:21.998Z,0.80
2019-05-13T03:30:24.456Z,1.00
2019-05-13T03:31:19.098Z,0.80
2019-05-13T03:32:19.091Z,0.90
2019-05-13T03:33:25.273Z,0.80
2019-05-13T03:34:19.082Z,1.00
2019-05-13T03:35:25.583Z,0.90
2019-05-13T03:36:24.795Z,0.90
2019-05-13T03:37:19.057Z,1.10
2019-05-13T03:38:22.356Z,1.20
2019-05-13T03:39:22.240Z,1.00
2019-05-13T03:40:22.751Z,1.40
2019-05-13T03:41:22.587Z,1.00
2019-05-13T03:42:19.013Z,1.00
2019-05-13T03:43:19.007Z,1.00
2019-05-13T03:44:18.999Z,1.10
2019-05-13T03:45:21.807Z,1.00
2019-05-13T03:46:18.985Z,0.90
2019-05-13T03:47:18.977Z,1.30
2019-05-13T03:48:18.966Z,1.10
2019-05-13T03:49:18.958Z,1.10
2019-05-13T03:50:22.301Z,1.00
2019-05-13T03:51:21.956Z,0.90
2019-05-13T03:52:22.182Z,1.00
2019-05-13T03:53:18.927Z,0.90
2019-05-13T03:54:22.373Z,0.90
2019-05-13T03:55:22.593Z,0.90
2019-05-13T03:56:18.904Z,0.90
2019-05-13T03:57:18.898Z,1.00
2019-05-13T03:58:18.898Z,0.90
2019-05-13T03:59:22.234Z,1.10
2019-05-13T04:00:18.875Z,1.60
2019-05-13T04:01:21.538Z,1.00
2019-05-13T04:02:22.391Z,1.20
2019-05-13T04:03:18.849Z,0.90
2019-05-13T04:04:18.886Z,0.80
2019-05-13T04:05:22.426Z,1.20
2019-05-13T04:06:18.826Z,1.10
2019-05-13T04:07:18.819Z,0.80
2019-05-13T04:08:18.813Z,1.00
2019-05-13T04:09:29.775Z,1.10
2019-05-13T04:10:18.801Z,1.10
2019-05-13T04:11:18.793Z,0.90
2019-05-13T04:12:18.781Z,0.90
2019-05-13T04:13:18.779Z,0.80
2019-05-13T04:14:18.767Z,1.00
2019-05-13T04:15:18.758Z,0.70
2019-05-13T04:16:18.755Z,0.90
2019-05-13T04:17:18.746Z,1.10
2019-05-13T04:18:18.735Z,1.00
2019-05-13T04:19:18.727Z,1.00
2019-05-13T04:20:18.721Z,1.00
2019-05-13T04:21:18.712Z,1.50
2019-05-13T04:22:18.704Z,1.10
2019-05-13T04:23:18.701Z,1.20
2019-05-13T04:24:18.692Z,1.30
2019-05-13T04:25:18.681Z,1.10
2019-05-13T04:26:18.674Z,1.30
2019-05-13T04:27:18.666Z,1.00
2019-05-13T04:28:21.983Z,1.20
2019-05-13T04:29:18.650Z,1.30
2019-05-13T04:30:18.643Z,1.40
2019-05-13T04:31:18.635Z,1.70
2019-05-13T04:32:18.631Z,1.40
2019-05-13T04:33:18.620Z,1.40
2019-05-13T04:34:18.613Z,1.50
2019-05-13T04:35:18.607Z,1.40
2019-05-13T04:36:18.599Z,1.30
2019-05-13T04:37:22.037Z,1.20
2019-05-13T04:38:18.582Z,1.20
2019-05-13T04:39:36.714Z,1.20
2019-05-13T04:40:18.566Z,1.60
2019-05-13T04:41:18.560Z,1.30
2019-05-13T04:42:18.553Z,1.30
2019-05-13T04:43:18.545Z,1.10
2019-05-13T04:44:18.539Z,1.80
2019-05-13T04:45:18.539Z,1.40
2019-05-13T04:46:18.521Z,1.50
2019-05-13T04:47:18.517Z,1.50
2019-05-13T04:48:18.509Z,1.30
2019-05-13T04:49:18.499Z,1.60
2019-05-13T04:50:18.494Z,1.30
2019-05-13T04:51:18.490Z,1.70
2019-05-13T04:52:18.478Z,2.00
2019-05-13T04:53:18.472Z,1.70
2019-05-13T04:54:18.468Z,1.50
2019-05-13T04:55:18.456Z,1.40
2019-05-13T04:56:18.449Z,1.60
2019-05-13T04:57:18.443Z,1.80
2019-05-13T04:58:18.436Z,1.70
2019-05-13T04:59:18.429Z,1.40
2019-05-13T05:00:18.421Z,1.70
2019-05-13T05:01:18.419Z,1.70
2019-05-13T05:02:18.408Z,1.20
2019-05-13T05:03:22.651Z,1.20
2019-05-13T05:04:24.253Z,1.60
2019-05-13T05:05:18.387Z,1.30
2019-05-13T05:06:18.385Z,1.90
2019-05-13T05:07:18.372Z,1.60
2019-05-13T05:08:18.364Z,1.30
2019-05-13T05:09:18.356Z,1.20
2019-05-13T05:10:30.360Z,1.60
2019-05-13T05:11:18.346Z,1.20
2019-05-13T05:12:18.339Z,1.20
2019-05-13T05:13:18.328Z,1.10
2019-05-13T05:14:18.324Z,1.30
2019-05-13T05:15:18.318Z,1.00
2019-05-13T05:16:18.318Z,1.30
2019-05-13T05:17:18.303Z,1.10
2019-05-13T05:18:18.301Z,1.50
2019-05-13T05:19:18.293Z,1.00
2019-05-13T05:20:18.284Z,1.40
2019-05-13T05:21:18.280Z,1.60
2019-05-13T05:22:18.270Z,1.20
2019-05-13T05:23:18.263Z,1.50
2019-05-13T05:24:18.258Z,1.50
2019-05-13T05:25:18.249Z,1.30
2019-05-13T05:26:18.245Z,1.10
2019-05-13T05:27:18.239Z,1.50
2019-05-13T05:28:18.235Z,1.10
2019-05-13T05:29:18.225Z,1.30
2019-05-13T05:30:18.218Z,1.30
2019-05-13T05:31:18.213Z,1.50
2019-05-13T05:32:18.210Z,1.70
2019-05-13T05:33:18.201Z,1.70
2019-05-13T05:34:18.194Z,1.10
2019-05-13T05:35:18.207Z,1.00
2019-05-13T05:36:18.185Z,1.10
2019-05-13T05:37:18.176Z,1.20
2019-05-13T05:38:18.170Z,1.00
2019-05-13T05:39:18.164Z,1.00
2019-05-13T05:40:28.945Z,1.00
2019-05-13T05:41:18.153Z,1.20
2019-05-13T05:42:18.148Z,1.20
2019-05-13T05:43:18.145Z,1.20
2019-05-13T05:44:18.144Z,1.20
2019-05-13T05:45:18.131Z,1.30
2019-05-13T05:46:18.123Z,1.30
2019-05-13T05:47:18.119Z,1.30
2019-05-13T05:48:18.114Z,1.50
2019-05-13T05:49:18.106Z,1.20
2019-05-13T05:50:18.104Z,1.10
2019-05-13T05:51:18.097Z,1.00
2019-05-13T05:52:18.091Z,1.30
2019-05-13T05:53:18.085Z,1.00
2019-05-13T05:54:18.080Z,1.70
2019-05-13T05:55:18.075Z,1.20
2019-05-13T05:56:18.072Z,1.10
2019-05-13T05:57:18.063Z,1.00
2019-05-13T05:58:18.059Z,0.90
2019-05-13T05:59:18.055Z,0.80
2019-05-13T06:00:18.058Z,1.00
2019-05-13T06:01:18.042Z,1.00
2019-05-13T06:02:18.041Z,1.00
2019-05-13T06:03:18.037Z,0.90
2019-05-13T06:04:18.031Z,1.20
2019-05-13T06:05:18.022Z,1.10
2019-05-13T06:06:18.025Z,1.10
2019-05-13T06:07:18.011Z,1.10
2019-05-13T06:08:18.029Z,1.20
2019-05-13T06:09:18.002Z,1.00
2019-05-13T06:10:17.998Z,1.10
2019-05-13T06:11:17.991Z,1.20
2019-05-13T06:12:17.988Z,0.90
2019-05-13T06:13:17.987Z,0.90
2019-05-13T06:14:17.979Z,0.90
2019-05-13T06:15:17.974Z,0.80
2019-05-13T06:16:17.969Z,0.90
2019-05-13T06:17:17.962Z,1.10
2019-05-13T06:18:17.958Z,1.20
2019-05-13T06:19:18.144Z,1.10
2019-05-13T06:20:17.948Z,0.90
2019-05-13T06:21:17.945Z,1.00
2019-05-13T06:22:17.938Z,0.90
2019-05-13T06:23:17.935Z,0.80
2019-05-13T06:24:17.929Z,1.10
2019-05-13T06:25:17.924Z,0.90
2019-05-13T06:26:17.922Z,1.10
2019-05-13T06:27:17.915Z,1.10
2019-05-13T06:28:17.911Z,1.00
2019-05-13T06:29:17.907Z,0.80
2019-05-13T06:30:17.902Z,0.90
2019-05-13T06:31:17.897Z,1.10
2019-05-13T06:32:23.555Z,1.30
2019-05-13T06:33:17.889Z,1.30
2019-05-13T06:34:17.883Z,1.00
2019-05-13T06:35:17.879Z,1.30
2019-05-13T06:36:17.874Z,1.10
2019-05-13T06:37:17.869Z,1.20
2019-05-13T06:38:17.873Z,0.90
2019-05-13T06:39:17.862Z,1.30
2019-05-13T06:40:17.859Z,1.00
2019-05-13T06:41:17.854Z,1.10
2019-05-13T06:42:17.849Z,1.00
2019-05-13T06:43:17.845Z,0.90
2019-05-13T06:44:17.840Z,1.90
2019-05-13T06:45:17.835Z,1.10
2019-05-13T06:46:17.830Z,0.80
2019-05-13T06:47:17.826Z,1.00
2019-05-13T06:48:17.824Z,0.90
2019-05-13T06:49:17.819Z,1.00
2019-05-13T06:50:17.816Z,1.00
2019-05-13T06:51:17.811Z,1.30
2019-05-13T06:52:17.808Z,0.90
2019-05-13T06:53:17.801Z,1.00
2019-05-13T06:54:17.799Z,1.30
2019-05-13T06:55:17.793Z,1.40
2019-05-13T06:56:17.789Z,0.80
2019-05-13T06:57:17.785Z,0.90
2019-05-13T06:58:17.781Z,1.00
2019-05-13T06:59:17.778Z,0.80
2019-05-13T07:00:17.775Z,1.10
2019-05-13T07:01:17.769Z,0.90
2019-05-13T07:02:17.806Z,1.20
2019-05-13T07:03:17.762Z,1.00
2019-05-13T07:04:17.756Z,1.10
2019-05-13T07:05:17.753Z,1.20
2019-05-13T07:06:17.750Z,0.90
2019-05-13T07:07:17.746Z,1.20
2019-05-13T07:08:17.741Z,1.60
2019-05-13T07:09:17.736Z,1.00
2019-05-13T07:10:17.733Z,1.50
2019-05-13T07:11:21.721Z,1.30
2019-05-13T07:12:17.725Z,1.40
2019-05-13T07:13:17.719Z,1.20
2019-05-13T07:14:17.715Z,1.30
2019-05-13T07:15:17.714Z,1.30
2019-05-13T07:16:17.711Z,1.30
2019-05-13T07:17:17.703Z,0.90
2019-05-13T07:18:17.753Z,1.50
2019-05-13T07:19:17.697Z,1.60
2019-05-13T07:20:17.699Z,1.50
2019-05-13T07:21:17.688Z,1.10
2019-05-13T07:22:17.685Z,1.40
2019-05-13T07:23:17.686Z,1.20
2019-05-13T07:24:17.678Z,1.20
2019-05-13T07:25:17.691Z,1.60
2019-05-13T07:26:17.670Z,1.40
2019-05-13T07:27:17.670Z,1.70
2019-05-13T07:28:17.662Z,1.00
2019-05-13T07:29:17.985Z,1.00
2019-05-13T07:30:17.656Z,1.20
2019-05-13T07:31:17.650Z,1.00
2019-05-13T07:32:17.647Z,1.10
2019-05-13T07:33:17.643Z,1.10
2019-05-13T07:34:17.639Z,1.30
2019-05-13T07:35:17.642Z,1.10
2019-05-13T07:36:17.633Z,1.40
2019-05-13T07:37:17.628Z,1.30
2019-05-13T07:38:17.632Z,1.00
2019-05-13T07:39:17.623Z,0.90
2019-05-13T07:40:17.656Z,0.90
2019-05-13T07:41:32.272Z,0.90
2019-05-13T07:42:17.612Z,1.00
2019-05-13T07:43:17.609Z,0.90
2019-05-13T07:44:17.605Z,1.00
2019-05-13T07:45:17.601Z,1.10
2019-05-13T07:46:17.599Z,1.10
2019-05-13T07:47:17.596Z,0.80
2019-05-13T07:48:21.058Z,1.20
2019-05-13T07:49:17.591Z,1.20
2019-05-13T07:50:17.591Z,1.00
2019-05-13T07:52:31.946Z,1.00
2019-05-13T07:54:29.319Z,1.00
2019-05-13T07:55:31.453Z,0.90
2019-05-13T07:56:29.318Z,0.90
2019-05-13T07:57:31.683Z,1.20
2019-05-13T07:58:29.320Z,1.00
2019-05-13T07:59:31.508Z,1.30
2019-05-13T08:00:29.345Z,1.20
2019-05-13T08:01:29.328Z,1.00
2019-05-13T08:02:31.781Z,1.20
2019-05-13T08:03:31.554Z,0.80
2019-05-13T08:04:29.334Z,1.20
2019-05-13T08:05:31.294Z,1.10
2019-05-13T08:06:29.342Z,0.90
2019-05-13T08:07:31.407Z,1.30
2019-05-13T08:08:29.352Z,0.90
2019-05-13T08:09:31.126Z,0.80
2019-05-13T08:10:29.365Z,0.80
2019-05-13T08:11:34.971Z,0.90
2019-05-13T08:13:31.486Z,1.20
2019-05-13T08:14:29.388Z,0.80
2019-05-13T08:15:31.523Z,1.10
2019-05-13T08:16:29.400Z,1.10
2019-05-13T08:17:29.430Z,0.80
2019-05-13T08:18:31.680Z,0.80
2019-05-13T08:19:29.425Z,0.90
2019-05-13T08:20:29.441Z,0.70
2019-05-13T08:22:12.772Z,1.40
2019-05-13T08:23:12.783Z,1.20
2019-05-13T08:24:14.006Z,0.80
2019-05-13T08:25:12.800Z,0.90
2019-05-13T08:26:12.808Z,0.90
2019-05-13T08:27:12.822Z,1.20
2019-05-13T08:28:12.884Z,1.00
2019-05-13T08:29:12.834Z,0.80
2019-05-13T08:30:12.845Z,0.80
2019-05-13T08:31:12.855Z,0.90
2019-05-13T08:32:12.867Z,1.20
2019-05-13T08:33:12.973Z,1.20
2019-05-13T08:34:12.893Z,0.70
2019-05-13T08:35:12.897Z,0.80
2019-05-13T08:36:12.906Z,0.90
2019-05-13T08:37:12.919Z,0.90
2019-05-13T08:40:12.951Z,0.80
2019-05-13T08:43:41.803Z,0.70
2019-05-13T08:44:41.699Z,0.80
2019-05-13T08:45:41.872Z,0.90
2019-05-13T08:46:41.401Z,0.70
2019-05-13T08:47:41.798Z,0.90
2019-05-13T08:48:42.631Z,0.80
2019-05-13T08:49:41.419Z,0.80
2019-05-13T08:50:41.784Z,0.60
2019-05-13T08:51:42.180Z,0.70
2019-05-13T08:52:42.007Z,0.80
2019-05-13T08:53:42.310Z,1.00
2019-05-13T08:54:41.764Z,0.80
2019-05-13T08:55:42.210Z,0.70
2019-05-13T08:56:41.610Z,0.80
2019-05-13T08:57:41.849Z,1.00
2019-05-13T08:58:41.292Z,0.80
2019-05-13T08:59:41.545Z,0.60
2019-05-13T09:00:41.441Z,0.50
2019-05-13T09:01:42.436Z,0.80
2019-05-13T09:02:41.891Z,0.90
2019-05-13T09:03:41.686Z,0.90
2019-05-13T09:04:42.011Z,0.80
2019-05-13T09:05:41.346Z,0.60
2019-05-13T09:06:41.929Z,0.80
2019-05-13T09:07:41.287Z,0.80
2019-05-13T09:08:41.786Z,0.70
2019-05-13T09:09:41.768Z,0.90
2019-05-13T09:10:41.332Z,0.90
2019-05-13T09:11:41.964Z,0.80
2019-05-13T09:12:41.048Z,0.80
2019-05-13T09:13:42.135Z,0.80
2019-05-13T09:14:41.642Z,0.80
2019-05-13T09:15:42.169Z,0.70
2019-05-13T09:16:41.864Z,0.90
2019-05-13T09:17:42.288Z,0.70
2019-05-13T09:18:42.441Z,0.70
2019-05-13T09:19:41.411Z,0.70
2019-05-13T09:20:41.631Z,0.80
2019-05-13T09:21:42.235Z,0.70
2019-05-13T09:22:41.262Z,0.70
2019-05-13T09:23:41.352Z,0.60
2019-05-13T09:24:42.285Z,0.60
2019-05-13T09:25:41.515Z,0.60
2019-05-13T09:26:42.120Z,0.70
2019-05-13T09:27:42.320Z,0.70
2019-05-13T09:28:41.705Z,0.60
2019-05-13T09:29:42.322Z,0.60
2019-05-13T09:30:42.353Z,0.60
2019-05-13T09:31:41.604Z,0.80
2019-05-13T09:32:42.225Z,0.60
2019-05-13T09:33:41.774Z,0.60
2019-05-13T09:34:42.220Z,0.60
2019-05-13T09:35:42.279Z,0.60
2019-05-13T09:36:41.760Z,0.70
2019-05-13T09:37:42.259Z,0.70
2019-05-13T09:38:41.850Z,0.90
2019-05-13T09:39:41.475Z,0.80
2019-05-13T09:40:42.295Z,0.70
2019-05-13T09:41:41.963Z,0.60
2019-05-13T09:42:49.035Z,0.60
2019-05-13T09:43:41.985Z,0.60
2019-05-13T09:44:41.982Z,0.70
2019-05-13T09:45:41.807Z,0.80
2019-05-13T09:47:41.749Z,0.80
2019-05-13T09:48:42.489Z,0.70
2019-05-13T09:49:42.049Z,0.60
2019-05-13T09:50:42.364Z,0.60
2019-05-13T09:51:41.650Z,0.50
2019-05-13T09:52:42.647Z,0.50
2019-05-13T09:53:41.669Z,0.60
2019-05-13T09:54:42.446Z,0.60
2019-05-13T09:55:41.536Z,0.60
2019-05-13T09:56:41.304Z,0.60
2019-05-13T09:57:41.544Z,0.60
2019-05-13T09:58:42.036Z,0.90
2019-05-13T09:59:42.222Z,0.60
2019-05-13T10:00:42.063Z,0.80
2019-05-13T10:01:42.562Z,0.80
2019-05-13T10:02:42.696Z,0.50
2019-05-13T10:03:53.996Z,0.60
2019-05-13T10:04:43.417Z,0.70
2019-05-13T10:05:40.988Z,0.70
2019-05-13T10:08:32.169Z,0.60
2019-05-13T10:09:28.953Z,0.50
2019-05-13T10:10:31.844Z,0.70
2019-05-13T10:11:28.975Z,0.70
2019-05-13T10:12:31.985Z,0.60
2019-05-13T10:13:31.501Z,0.70
2019-05-13T10:14:33.713Z,0.80
2019-05-13T10:16:32.390Z,0.60
2019-05-13T10:25:35.028Z,0.80
2019-05-13T10:29:12.172Z,0.70
2019-05-13T10:34:13.621Z,0.80
2019-05-13T10:36:16.805Z,0.80
2019-05-13T10:37:16.814Z,0.80
2019-05-13T10:38:16.822Z,0.90
2019-05-13T10:39:16.831Z,0.70
2019-05-13T10:42:43.602Z,0.70
2019-05-13T10:44:42.489Z,0.80
2019-05-13T10:45:41.926Z,0.90
2019-05-13T10:46:42.616Z,0.80
2019-05-13T10:48:54.159Z,0.70
2019-05-13T10:50:43.888Z,0.60
2019-05-13T10:51:43.693Z,0.60
2019-05-13T10:52:43.702Z,0.80
2019-05-13T10:53:46.334Z,0.60
2019-05-13T10:57:48.085Z,1.10
2019-05-13T10:59:48.854Z,0.70
2019-05-13T11:00:49.100Z,0.70
2019-05-13T11:02:50.082Z,0.70
2019-05-13T11:03:52.144Z,0.60
2019-05-13T11:04:48.886Z,0.80
2019-05-13T11:05:51.664Z,0.60
2019-05-13T11:06:48.900Z,0.80
2019-05-13T11:07:51.291Z,0.60
2019-05-13T11:08:48.916Z,0.70
2019-05-13T11:09:48.941Z,0.80
2019-05-13T11:10:48.937Z,0.60
2019-05-13T11:11:48.939Z,0.70
2019-05-13T11:12:48.945Z,0.60
2019-05-13T11:13:56.348Z,0.60
2019-05-13T11:14:51.464Z,0.70
2019-05-13T11:15:48.967Z,1.00
2019-05-13T11:16:51.340Z,0.90
2019-05-13T11:17:48.979Z,0.80
2019-05-13T11:18:51.676Z,0.70
2019-05-13T11:19:48.991Z,0.90
2019-05-13T11:20:48.998Z,0.90
2019-05-13T11:21:50.779Z,0.80
2019-05-13T11:22:49.012Z,0.60
2019-05-13T11:23:49.544Z,0.70
2019-05-13T11:24:51.693Z,0.70
2019-05-13T11:25:49.024Z,0.90
2019-05-13T11:26:49.027Z,0.70
2019-05-13T11:27:49.034Z,0.60
2019-05-13T11:28:49.036Z,0.80
2019-05-13T11:29:52.150Z,0.70
2019-05-13T11:30:49.494Z,0.80
2019-05-13T11:31:52.055Z,0.80
2019-05-13T11:32:51.486Z,0.70
2019-05-13T11:33:51.788Z,0.50
2019-05-13T11:34:49.059Z,0.60
2019-05-13T11:35:49.062Z,0.70
2019-05-13T11:36:49.067Z,0.50
2019-05-13T11:37:49.070Z,0.50
2019-05-13T11:38:49.072Z,0.60
2019-05-13T11:39:51.220Z,0.70
2019-05-13T11:40:51.543Z,0.50
2019-05-13T11:41:49.082Z,0.60
2019-05-13T11:42:49.085Z,0.70
2019-05-13T11:44:10.933Z,0.60
2019-05-13T11:44:52.549Z,0.50
2019-05-13T11:45:49.127Z,1.20
2019-05-13T11:46:49.096Z,0.70
2019-05-13T11:47:49.098Z,0.60
2019-05-13T11:48:51.645Z,0.70
2019-05-13T11:49:51.392Z,0.70
2019-05-13T11:50:50.486Z,0.60
2019-05-13T11:51:51.717Z,0.70
2019-05-13T11:52:52.224Z,0.50
2019-05-13T11:53:49.109Z,0.60
2019-05-13T11:54:49.111Z,0.70
2019-05-13T11:55:52.015Z,0.70
2019-05-13T11:56:54.417Z,0.70
2019-05-13T11:57:49.117Z,0.60
2019-05-13T11:58:49.119Z,0.60
2019-05-13T11:59:49.122Z,0.60
2019-05-13T12:00:52.758Z,0.70
2019-05-13T12:01:49.122Z,0.80
2019-05-13T12:02:53.090Z,0.80
2019-05-13T12:03:49.125Z,0.70
2019-05-13T12:04:49.128Z,0.90
2019-05-13T12:05:49.128Z,0.60
2019-05-13T12:06:54.020Z,0.60
2019-05-13T12:07:49.130Z,0.70
2019-05-13T12:08:51.992Z,0.60
2019-05-13T12:09:51.294Z,0.70
2019-05-13T12:10:51.203Z,0.60
2019-05-13T12:11:49.137Z,0.70
2019-05-13T12:12:49.158Z,0.70
2019-05-13T12:13:52.512Z,0.70
2019-05-13T12:15:21.167Z,0.80
2019-05-13T12:15:49.922Z,0.70
2019-05-13T12:16:49.141Z,0.70
2019-05-13T12:17:49.142Z,0.70
2019-05-13T12:18:51.199Z,0.70
2019-05-13T12:19:49.146Z,0.80
2019-05-13T12:20:49.150Z,0.70
2019-05-13T12:21:49.152Z,0.70
2019-05-13T12:22:51.477Z,0.70
2019-05-13T12:23:49.202Z,0.70
2019-05-13T12:24:49.148Z,0.90
2019-05-13T12:25:52.552Z,0.50
2019-05-13T12:26:52.836Z,0.70
2019-05-13T12:27:51.373Z,0.70
2019-05-13T12:28:53.223Z,0.80
2019-05-13T12:29:51.906Z,0.70
2019-05-13T12:30:49.155Z,0.80
2019-05-13T12:31:52.401Z,0.60
2019-05-13T12:32:51.349Z,0.80
2019-05-13T12:33:51.982Z,0.70
2019-05-13T12:34:52.364Z,0.70
2019-05-13T12:35:52.550Z,0.50
2019-05-13T12:36:49.157Z,0.70
2019-05-13T12:37:49.205Z,0.80
2019-05-13T12:38:52.943Z,0.80
2019-05-13T12:39:49.631Z,0.80
2019-05-13T12:40:52.458Z,0.60
2019-05-13T12:41:49.161Z,0.80
2019-05-13T12:42:49.162Z,0.60
2019-05-13T12:43:49.161Z,0.60
2019-05-13T12:45:02.978Z,0.70
2019-05-13T12:45:49.167Z,0.70
2019-05-13T12:47:49.164Z,0.60
2019-05-13T12:48:49.165Z,0.60
2019-05-13T12:49:49.166Z,0.70
2019-05-13T12:50:49.167Z,0.60
2019-05-13T12:51:51.113Z,0.60
2019-05-13T12:52:51.490Z,0.70
2019-05-13T12:53:52.423Z,0.50
2019-05-13T12:54:49.168Z,0.60
2019-05-13T12:55:55.768Z,0.50
2019-05-13T12:56:52.173Z,0.50
2019-05-13T12:57:49.171Z,0.70
2019-05-13T12:58:51.284Z,0.50
2019-05-13T12:59:49.170Z,0.50
2019-05-13T13:00:49.168Z,0.60
2019-05-13T13:01:51.939Z,0.60
2019-05-13T13:02:51.794Z,0.50
2019-05-13T13:03:49.171Z,0.50
2019-05-13T13:05:08.637Z,0.60
2019-05-13T13:05:49.171Z,0.60
2019-05-13T13:06:52.675Z,0.60
2019-05-13T13:08:13.652Z,0.70
2019-05-13T13:08:50.657Z,0.60
2019-05-13T13:09:53.100Z,0.70
2019-05-13T13:10:49.462Z,0.50
2019-05-13T13:11:49.171Z,0.60
2019-05-13T13:12:49.176Z,0.60
2019-05-13T13:14:09.476Z,0.50
2019-05-13T13:14:54.063Z,0.60
2019-05-13T13:15:49.177Z,0.70
2019-05-13T13:16:49.175Z,0.70
2019-05-13T13:17:53.672Z,0.70
2019-05-13T13:18:51.493Z,0.60
2019-05-13T13:19:49.176Z,0.60
2019-05-13T13:20:58.049Z,1.00
2019-05-13T13:21:53.026Z,0.60
2019-05-13T13:22:49.178Z,0.60
2019-05-13T13:23:49.180Z,0.60
2019-05-13T13:24:55.865Z,0.60
2019-05-13T13:25:53.103Z,0.70
2019-05-13T13:26:49.180Z,0.50
2019-05-13T13:28:08.930Z,0.60
2019-05-13T13:28:49.183Z,0.50
2019-05-13T13:29:52.444Z,0.60
2019-05-13T13:30:52.526Z,0.70
2019-05-13T13:31:49.182Z,0.60
2019-05-13T13:32:54.158Z,0.70
2019-05-13T13:33:53.945Z,1.20
2019-05-13T13:34:53.656Z,0.80
2019-05-13T13:35:58.632Z,0.60
2019-05-13T13:36:50.142Z,0.80
2019-05-13T13:37:49.187Z,0.70
2019-05-13T13:38:55.186Z,0.70
2019-05-13T13:39:54.336Z,0.70
2019-05-13T13:40:53.439Z,0.70
2019-05-13T13:41:49.798Z,0.80
2019-05-13T13:42:52.657Z,0.60
2019-05-13T13:43:49.192Z,0.70
2019-05-13T13:44:53.462Z,0.60
2019-05-13T13:46:08.750Z,0.60
2019-05-13T13:46:50.710Z,0.60
2019-05-13T13:47:59.274Z,0.60
2019-05-13T13:48:54.818Z,0.70
2019-05-13T13:49:49.731Z,0.80
2019-05-13T13:50:55.040Z,0.80
2019-05-13T13:51:49.201Z,0.80
2019-05-13T13:52:52.573Z,0.60
2019-05-13T13:53:49.200Z,0.70
2019-05-13T13:54:58.947Z,0.80
2019-05-13T13:55:49.206Z,0.60
2019-05-13T13:56:49.203Z,0.80
2019-05-13T13:57:49.205Z,0.60